Time;durP1;ratioP1;P1;durP2;ratioP2;P2;SDS_P1;SDS_P2;PMS_P1;PMS_P2;Temp;Humidity;BMP_temperature;BMP_pressure;BME280_temperature;BME280_humidity;BME280_pressure;Samples;Min_cycle;Max_cycle;Signal;HPM_P1;HPM_P2
2023/04/06 00:02:04;;;;;;;;;;;10.50;99.90;;;;;;5056643;28;19919;-66
2023/04/06 00:04:30;;;;;;;;;;;10.50;99.90;;;;;;5054238;28;20292;-66
2023/04/06 00:06:56;;;;;;;;;;;10.50;99.90;;;;;;5056040;28;20364;-64
2023/04/06 00:09:22;;;;;;;;;;;10.50;99.90;;;;;;5059180;28;20318;-65
2023/04/06 00:11:47;;;;;;;;;;;10.50;99.90;;;;;;5060919;28;19916;-66
2023/04/06 00:14:13;;;;;;;;;;;10.50;99.90;;;;;;5056060;28;19935;-64
2023/04/06 00:16:39;;;;;;;;;;;10.50;99.90;;;;;;5063909;28;20402;-65
2023/04/06 00:19:05;;;;;;;;;;;10.50;99.90;;;;;;5059788;28;19921;-65
2023/04/06 00:21:31;;;;;;;;;;;10.50;99.90;;;;;;5054183;28;19963;-64
2023/04/06 00:23:56;;;;;;;;;;;10.50;99.90;;;;;;5053592;28;19912;-63
2023/04/06 00:26:22;;;;;;;;;;;10.50;99.90;;;;;;5063506;28;20280;-64
2023/04/06 00:28:49;;;;;;;;;;;10.50;99.90;;;;;;5064621;28;20011;-65
2023/04/06 00:31:15;;;;;;;;;;;10.50;99.90;;;;;;5058061;28;19956;-64
2023/04/06 00:33:41;;;;;;;;;;;10.50;99.90;;;;;;5054047;28;20336;-65
2023/04/06 00:36:06;;;;;;;;;;;10.50;99.90;;;;;;5056357;28;19920;-64
2023/04/06 00:38:32;;;;;;;;;;;10.50;99.90;;;;;;5058095;28;20284;-66
2023/04/06 00:40:57;;;;;;;;;;;10.50;99.90;;;;;;5037742;28;19928;-65
2023/04/06 00:43:24;;;;;;;;;;;10.50;99.90;;;;;;5062932;28;19921;-64
2023/04/06 00:45:50;;;;;;;;;;;10.50;99.90;;;;;;5057414;28;19959;-65
2023/04/06 00:48:16;;;;;;;;;;;10.50;99.90;;;;;;5063751;28;20280;-65
2023/04/06 00:50:42;;;;;;;;;;;10.50;99.90;;;;;;5063225;28;19988;-65
2023/04/06 00:53:07;;;;;;;;;;;10.50;99.90;;;;;;5057746;28;20007;-66
2023/04/06 00:55:35;;;;;;;;;;;10.50;99.90;;;;;;5061058;28;19920;-65
2023/04/06 00:58:01;;;;;;;;;;;10.50;99.90;;;;;;5056621;28;20439;-63
2023/04/06 01:00:27;;;;;;;;;;;10.50;99.90;;;;;;5034700;28;19913;-66
2023/04/06 01:02:53;;;;;;;;;;;10.50;99.90;;;;;;5052635;28;19920;-65
2023/04/06 01:05:18;;;;;;;;;;;10.50;99.90;;;;;;5066819;28;20374;-65
2023/04/06 01:07:44;;;;;;;;;;;10.40;99.90;;;;;;5062791;28;19960;-64
2023/04/06 01:10:10;;;;;;;;;;;10.50;99.90;;;;;;5064094;28;20327;-64
2023/04/06 01:12:37;;;;;;;;;;;10.50;99.90;;;;;;5058242;28;20376;-64
2023/04/06 01:15:03;;;;;;;;;;;10.40;99.90;;;;;;5063308;28;19913;-64
2023/04/06 01:17:28;;;;;;;;;;;10.40;99.90;;;;;;5065726;28;19916;-64
2023/04/06 01:19:54;;;;;;;;;;;10.50;99.90;;;;;;5065925;28;20372;-65
2023/04/06 01:22:20;;;;;;;;;;;10.40;99.90;;;;;;5067377;28;20007;-64
2023/04/06 01:24:45;;;;;;;;;;;10.40;99.90;;;;;;5057242;28;20438;-63
2023/04/06 01:27:11;;;;;;;;;;;10.40;99.90;;;;;;5061765;28;19913;-64
2023/04/06 01:29:37;;;;;;;;;;;10.40;99.90;;;;;;5059806;28;19912;-63
2023/04/06 01:32:03;;;;;;;;;;;10.40;99.90;;;;;;5057742;28;19917;-64
2023/04/06 01:34:29;;;;;;;;;;;10.40;99.90;;;;;;5061313;28;19913;-64
2023/04/06 01:36:54;;;;;;;;;;;10.40;99.90;;;;;;5059242;28;19913;-63
2023/04/06 01:39:20;;;;;;;;;;;10.40;99.90;;;;;;5058114;28;20394;-63
2023/04/06 01:41:47;;;;;;;;;;;10.40;99.90;;;;;;5063800;28;20276;-63
2023/04/06 01:44:13;;;;;;;;;;;10.40;99.90;;;;;;5051490;28;19967;-63
2023/04/06 01:46:38;;;;;;;;;;;10.40;99.90;;;;;;5051286;28;19944;-63
2023/04/06 01:49:04;;;;;;;;;;;10.40;99.90;;;;;;5047906;28;20308;-63
2023/04/06 01:51:30;;;;;;;;;;;10.40;99.90;;;;;;5049399;28;19919;-64
2023/04/06 01:53:56;;;;;;;;;;;10.40;99.90;;;;;;5049981;28;19913;-63
2023/04/06 01:56:21;;;;;;;;;;;10.40;99.90;;;;;;5048561;28;19919;-64
2023/04/06 01:58:47;;;;;;;;;;;10.40;99.90;;;;;;5049476;28;19921;-64
2023/04/06 02:01:13;;;;;;;;;;;10.40;99.90;;;;;;5049375;28;19952;-63
2023/04/06 02:03:38;;;;;;;;;;;10.40;99.90;;;;;;5051527;28;19913;-63
2023/04/06 02:06:04;;;;;;;;;;;10.40;99.90;;;;;;5048207;28;19912;-64
2023/04/06 02:08:30;;;;;;;;;;;10.40;99.90;;;;;;5049707;28;19996;-63
2023/04/06 02:10:55;;;;;;;;;;;10.40;99.90;;;;;;5046300;28;20048;-63
2023/04/06 02:13:21;;;;;;;;;;;10.40;99.90;;;;;;5051267;28;19913;-63
2023/04/06 02:15:47;;;;;;;;;;;10.40;99.90;;;;;;5049358;28;19913;-62
2023/04/06 02:18:12;;;;;;;;;;;10.40;99.90;;;;;;5051350;28;19951;-65
2023/04/06 02:20:38;;;;;;;;;;;10.50;99.90;;;;;;5050867;28;19928;-64
2023/04/06 02:23:03;;;;;;;;;;;10.40;99.90;;;;;;5049412;28;19913;-64
2023/04/06 02:25:29;;;;;;;;;;;10.40;99.90;;;;;;5046752;28;19978;-64
2023/04/06 02:27:55;;;;;;;;;;;10.50;99.90;;;;;;5048339;28;20312;-64
2023/04/06 02:30:20;;;;;;;;;;;10.50;99.90;;;;;;5050047;28;19917;-63
2023/04/06 02:32:46;;;;;;;;;;;10.50;99.90;;;;;;5050869;28;19913;-63
2023/04/06 02:35:12;;;;;;;;;;;10.50;99.90;;;;;;5044806;28;19999;-62
2023/04/06 02:37:37;;;;;;;;;;;10.50;99.90;;;;;;5049298;28;20368;-63
2023/04/06 02:40:03;;;;;;;;;;;10.50;99.90;;;;;;5047686;28;19999;-62
2023/04/06 02:42:29;;;;;;;;;;;10.50;99.90;;;;;;5046717;28;20001;-62
2023/04/06 02:44:55;;;;;;;;;;;10.50;99.90;;;;;;5048202;28;19923;-62
2023/04/06 02:47:21;;;;;;;;;;;10.50;99.90;;;;;;5050848;28;19912;-62
2023/04/06 02:49:46;;;;;;;;;;;10.50;99.90;;;;;;5050015;28;19921;-62
2023/04/06 02:52:12;;;;;;;;;;;10.50;99.90;;;;;;5050906;28;19913;-63
2023/04/06 02:54:38;;;;;;;;;;;10.50;99.90;;;;;;5049175;28;19924;-64
2023/04/06 02:57:03;;;;;;;;;;;10.50;99.90;;;;;;5047781;28;19916;-63
2023/04/06 02:59:29;;;;;;;;;;;10.50;99.90;;;;;;5053703;28;19920;-64
2023/04/06 03:01:55;;;;;;;;;;;10.50;99.90;;;;;;5056099;28;19960;-63
2023/04/06 03:04:22;;;;;;;;;;;10.50;99.90;;;;;;5058579;28;20373;-63
2023/04/06 03:06:48;;;;;;;;;;;10.50;99.90;;;;;;5053503;28;20369;-63
2023/04/06 03:09:14;;;;;;;;;;;10.50;99.90;;;;;;5056452;28;20378;-65
2023/04/06 03:11:39;;;;;;;;;;;10.50;99.90;;;;;;5059978;28;19912;-62
2023/04/06 03:14:05;;;;;;;;;;;10.50;99.90;;;;;;5055245;28;20383;-64
2023/04/06 03:16:31;;;;;;;;;;;10.50;99.90;;;;;;5052772;28;19923;-64
2023/04/06 03:18:56;;;;;;;;;;;10.50;99.90;;;;;;5055316;28;19920;-62
2023/04/06 03:21:22;;;;;;;;;;;10.50;99.90;;;;;;5059629;28;19944;-63
2023/04/06 03:23:50;;;;;;;;;;;10.50;99.90;;;;;;5061917;28;20342;-64
2023/04/06 03:26:16;;;;;;;;;;;10.50;99.90;;;;;;5055843;28;19912;-64
2023/04/06 03:28:42;;;;;;;;;;;10.50;99.90;;;;;;5054441;28;19919;-64
2023/04/06 03:31:07;;;;;;;;;;;10.50;99.90;;;;;;5061249;28;19917;-64
2023/04/06 03:33:33;;;;;;;;;;;10.60;99.90;;;;;;5056606;28;19979;-65
2023/04/06 03:35:58;;;;;;;;;;;10.60;99.90;;;;;;5031076;28;19916;-64
2023/04/06 03:38:24;;;;;;;;;;;10.60;99.90;;;;;;5047376;28;20004;-64
2023/04/06 03:40:50;;;;;;;;;;;10.60;99.90;;;;;;5027966;28;19917;-65
2023/04/06 03:43:16;;;;;;;;;;;10.60;99.90;;;;;;5041992;28;20019;-63
2023/04/06 03:45:41;;;;;;;;;;;10.60;99.90;;;;;;5038319;28;19913;-63
2023/04/06 03:48:07;;;;;;;;;;;10.70;99.90;;;;;;5057779;28;20305;-63
2023/04/06 03:50:36;;;;;;;;;;;10.60;99.90;;;;;;5053263;28;19917;-62
2023/04/06 03:53:02;;;;;;;;;;;10.70;99.90;;;;;;5057572;28;19917;-63
2023/04/06 03:55:28;;;;;;;;;;;10.70;99.90;;;;;;5054302;28;19923;-62
2023/04/06 03:57:54;;;;;;;;;;;10.70;99.90;;;;;;5055222;28;19913;-62
2023/04/06 04:00:20;;;;;;;;;;;10.70;99.90;;;;;;5058433;28;20063;-62
2023/04/06 04:02:45;;;;;;;;;;;10.70;99.90;;;;;;5032676;28;19913;-63
2023/04/06 04:05:11;;;;;;;;;;;10.80;99.90;;;;;;5055187;28;19959;-63
2023/04/06 04:07:36;;;;;;;;;;;10.70;99.90;;;;;;5051057;28;19913;-63
2023/04/06 04:10:02;;;;;;;;;;;10.70;99.90;;;;;;5046891;28;19917;-63
2023/04/06 04:12:28;;;;;;;;;;;10.70;99.90;;;;;;5060570;28;19920;-64
2023/04/06 04:14:54;;;;;;;;;;;10.70;99.90;;;;;;5048465;28;20319;-64
2023/04/06 04:17:19;;;;;;;;;;;10.70;99.90;;;;;;5057271;28;19919;-63
2023/04/06 04:19:45;;;;;;;;;;;10.70;99.90;;;;;;5032003;28;19955;-63
2023/04/06 04:22:11;;;;;;;;;;;10.70;99.90;;;;;;5057449;28;19913;-62
2023/04/06 04:24:36;;;;;;;;;;;10.80;99.90;;;;;;5063027;28;19913;-62
2023/04/06 04:27:02;;;;;;;;;;;10.70;99.90;;;;;;5040767;28;19912;-63
2023/04/06 04:29:28;;;;;;;;;;;10.80;99.90;;;;;;5065141;28;20292;-63
2023/04/06 04:31:53;;;;;;;;;;;10.70;99.90;;;;;;5039760;28;19916;-63
2023/04/06 04:34:24;;;;;;;;;;;10.80;99.90;;;;;;5066233;28;19954;-63
2023/04/06 04:36:51;;;;;;;;;;;10.80;99.90;;;;;;5056724;28;19920;-63
2023/04/06 04:39:16;;;;;;;;;;;10.80;99.90;;;;;;5058899;28;19928;-63
2023/04/06 04:41:42;;;;;;;;;;;10.80;99.90;;;;;;5055014;28;20316;-65
2023/04/06 04:44:07;;;;;;;;;;;10.80;99.90;;;;;;5052403;28;19931;-65
2023/04/06 04:46:33;;;;;;;;;;;10.90;99.90;;;;;;5057312;28;19913;-63
2023/04/06 04:48:59;;;;;;;;;;;10.90;99.90;;;;;;5029156;28;19916;-64
2023/04/06 04:51:25;;;;;;;;;;;10.90;99.90;;;;;;5065742;28;19920;-64
2023/04/06 04:53:50;;;;;;;;;;;10.90;99.90;;;;;;5065591;28;20331;-64
2023/04/06 04:56:16;;;;;;;;;;;10.90;99.90;;;;;;5069740;28;20372;-63
2023/04/06 04:58:41;;;;;;;;;;;10.90;99.90;;;;;;5063091;28;19917;-64
2023/04/06 05:01:07;;;;;;;;;;;11.00;99.90;;;;;;5049764;28;19921;-64
2023/04/06 05:03:33;;;;;;;;;;;11.00;99.90;;;;;;5064774;28;19944;-64
2023/04/06 05:05:59;;;;;;;;;;;11.00;99.90;;;;;;5055091;28;19964;-64
2023/04/06 05:08:24;;;;;;;;;;;11.00;99.90;;;;;;5047789;28;19913;-63
2023/04/06 05:10:50;;;;;;;;;;;11.00;99.90;;;;;;5058948;28;19996;-63
2023/04/06 05:13:16;;;;;;;;;;;11.00;99.90;;;;;;5053073;28;19966;-64
2023/04/06 05:15:42;;;;;;;;;;;11.10;99.90;;;;;;5057117;28;19955;-64
2023/04/06 05:18:07;;;;;;;;;;;11.10;99.90;;;;;;5050284;28;19923;-64
2023/04/06 05:20:34;;;;;;;;;;;11.10;99.90;;;;;;5054963;28;19923;-64
2023/04/06 05:22:59;;;;;;;;;;;11.10;99.90;;;;;;5049187;28;19913;-63
2023/04/06 05:25:25;;;;;;;;;;;11.10;99.90;;;;;;5054938;28;20262;-63
2023/04/06 05:27:51;;;;;;;;;;;11.10;99.90;;;;;;5056950;28;19913;-64
2023/04/06 05:30:16;;;;;;;;;;;11.20;99.90;;;;;;5049040;28;19913;-64
2023/04/06 05:32:44;;;;;;;;;;;11.20;99.90;;;;;;5053508;28;20015;-65
2023/04/06 05:35:10;;;;;;;;;;;11.20;99.90;;;;;;5058459;28;19918;-64
2023/04/06 05:37:36;;;;;;;;;;;11.20;99.90;;;;;;5057992;28;20130;-64
2023/04/06 05:40:01;;;;;;;;;;;11.30;99.90;;;;;;5051504;28;20019;-64
2023/04/06 05:42:27;;;;;;;;;;;11.30;99.90;;;;;;5054813;28;19913;-63
2023/04/06 05:44:53;;;;;;;;;;;11.30;99.90;;;;;;5059732;28;19916;-64
2023/04/06 05:47:18;;;;;;;;;;;11.30;99.90;;;;;;5055805;28;19924;-63
2023/04/06 05:49:44;;;;;;;;;;;11.30;99.90;;;;;;5035551;28;19913;-64
2023/04/06 05:52:10;;;;;;;;;;;11.30;99.90;;;;;;5060920;28;20294;-62
2023/04/06 05:54:38;;;;;;;;;;;11.40;99.90;;;;;;5053481;28;19920;-62
2023/04/06 05:57:04;;;;;;;;;;;11.40;99.90;;;;;;5048407;28;19913;-62
2023/04/06 05:59:30;;;;;;;;;;;11.40;99.90;;;;;;5054859;28;20003;-62
2023/04/06 06:01:55;;;;;;;;;;;11.40;99.90;;;;;;5058586;28;19999;-63
2023/04/06 06:04:21;;;;;;;;;;;11.50;99.90;;;;;;5054856;28;19992;-64
2023/04/06 06:06:47;;;;;;;;;;;11.60;99.90;;;;;;5052334;28;19913;-63
2023/04/06 06:09:13;;;;;;;;;;;11.60;99.90;;;;;;5063346;28;19966;-64
2023/04/06 06:11:38;;;;;;;;;;;11.60;99.90;;;;;;5058926;28;19978;-62
2023/04/06 06:14:04;;;;;;;;;;;11.60;99.90;;;;;;5047113;28;19913;-63
2023/04/06 06:16:30;;;;;;;;;;;11.60;99.90;;;;;;5053377;28;20315;-64
2023/04/06 06:18:55;;;;;;;;;;;11.60;99.90;;;;;;5049820;28;20023;-63
2023/04/06 06:21:21;;;;;;;;;;;11.60;99.90;;;;;;5049627;28;19913;-64
2023/04/06 06:23:49;;;;;;;;;;;11.60;99.90;;;;;;5059712;28;19935;-63
2023/04/06 06:26:14;;;;;;;;;;;11.70;99.90;;;;;;5051690;28;19913;-66
2023/04/06 06:28:40;;;;;;;;;;;11.70;99.90;;;;;;5056509;28;19913;-65
2023/04/06 06:31:06;;;;;;;;;;;11.70;99.90;;;;;;5056470;28;19912;-65
2023/04/06 06:33:31;;;;;;;;;;;11.70;99.90;;;;;;5051750;28;19925;-64
2023/04/06 06:35:57;;;;;;;;;;;11.80;99.90;;;;;;5057927;28;19913;-64
2023/04/06 06:38:22;;;;;;;;;;;11.80;99.90;;;;;;5051225;28;19913;-64
2023/04/06 06:40:48;;;;;;;;;;;11.80;99.90;;;;;;5048167;28;19925;-63
2023/04/06 06:43:14;;;;;;;;;;;11.80;99.90;;;;;;5049410;28;19925;-64
2023/04/06 06:45:40;;;;;;;;;;;11.80;99.90;;;;;;5061046;28;20451;-64
2023/04/06 06:48:05;;;;;;;;;;;11.80;99.90;;;;;;5046996;28;19952;-64
2023/04/06 06:50:31;;;;;;;;;;;11.80;99.90;;;;;;5050788;28;20331;-65
2023/04/06 06:52:57;;;;;;;;;;;11.80;99.90;;;;;;5056807;28;20330;-65
2023/04/06 06:55:22;;;;;;;;;;;11.90;99.90;;;;;;5050271;28;19912;-63
2023/04/06 06:57:50;;;;;;;;;;;11.80;99.90;;;;;;5047226;28;20077;-65
2023/04/06 07:00:16;;;;;;;;;;;11.80;99.90;;;;;;5059526;28;19921;-65
2023/04/06 07:02:42;;;;;;;;;;;11.90;99.90;;;;;;5051662;28;19924;-65
2023/04/06 07:05:07;;;;;;;;;;;11.90;99.90;;;;;;5046863;28;20441;-64
2023/04/06 07:07:33;;;;;;;;;;;11.90;99.90;;;;;;5031879;28;20022;-65
2023/04/06 07:09:59;;;;;;;;;;;12.00;99.90;;;;;;5050789;28;20376;-63
2023/04/06 07:12:25;;;;;;;;;;;12.10;99.90;;;;;;5050864;28;19936;-65
2023/04/06 07:14:51;;;;;;;;;;;12.10;99.90;;;;;;5048842;28;20321;-64
2023/04/06 07:17:16;;;;;;;;;;;12.20;99.90;;;;;;5057707;28;20003;-63
2023/04/06 07:19:42;;;;;;;;;;;12.30;99.90;;;;;;5056886;28;19920;-64
2023/04/06 07:22:08;;;;;;;;;;;12.50;99.90;;;;;;5060028;28;19916;-65
2023/04/06 07:24:33;;;;;;;;;;;12.60;99.90;;;;;;5060253;28;19913;-64
2023/04/06 07:27:00;;;;;;;;;;;12.80;99.90;;;;;;5055008;28;19921;-64
2023/04/06 07:29:26;;;;;;;;;;;12.90;99.90;;;;;;5059761;28;19919;-64
2023/04/06 07:31:52;;;;;;;;;;;13.00;99.90;;;;;;5054464;28;20283;-64
2023/04/06 07:34:18;;;;;;;;;;;12.90;99.90;;;;;;5060912;28;20442;-66
2023/04/06 07:36:43;;;;;;;;;;;12.90;99.90;;;;;;5059094;28;19919;-65
2023/04/06 07:39:09;;;;;;;;;;;12.70;99.90;;;;;;5056956;28;19927;-65
2023/04/06 07:41:34;;;;;;;;;;;12.80;99.90;;;;;;5059690;28;20372;-65
2023/04/06 07:44:00;;;;;;;;;;;12.90;99.90;;;;;;5055535;28;20383;-64
2023/04/06 07:46:26;;;;;;;;;;;12.90;99.90;;;;;;5054779;28;20383;-65
2023/04/06 07:48:51;;;;;;;;;;;12.90;99.90;;;;;;5062596;28;19970;-65
2023/04/06 07:51:17;;;;;;;;;;;12.80;99.90;;;;;;5061396;28;20265;-65
2023/04/06 07:53:46;;;;;;;;;;;12.70;99.90;;;;;;5061051;28;20276;-66
2023/04/06 07:56:12;;;;;;;;;;;12.60;99.90;;;;;;5054326;28;19955;-66
2023/04/06 07:58:38;;;;;;;;;;;12.70;99.90;;;;;;5056508;28;20338;-65
2023/04/06 08:01:03;;;;;;;;;;;12.70;99.90;;;;;;5056836;28;19917;-67
2023/04/06 08:03:29;;;;;;;;;;;12.70;99.90;;;;;;5059572;28;19920;-64
2023/04/06 08:05:55;;;;;;;;;;;12.60;99.90;;;;;;5062624;28;19912;-64
2023/04/06 08:08:21;;;;;;;;;;;12.40;99.90;;;;;;5058094;28;19917;-64
2023/04/06 08:10:49;;;;;;;;;;;12.50;99.90;;;;;;5057487;28;20007;-64
2023/04/06 08:13:16;;;;;;;;;;;12.60;99.90;;;;;;5053361;28;19919;-64
2023/04/06 08:15:41;;;;;;;;;;;12.60;99.90;;;;;;5059001;28;19921;-64
2023/04/06 08:18:08;;;;;;;;;;;12.50;99.90;;;;;;5053046;28;20409;-64
2023/04/06 08:20:34;;;;;;;;;;;12.50;99.90;;;;;;5054947;28;20042;-65
2023/04/06 08:22:59;;;;;;;;;;;12.50;99.90;;;;;;5054314;28;20369;-65
2023/04/06 08:25:25;;;;;;;;;;;12.60;99.90;;;;;;5060938;28;19959;-65
2023/04/06 08:27:51;;;;;;;;;;;12.60;99.90;;;;;;5035234;28;19967;-64
2023/04/06 08:30:18;;;;;;;;;;;12.50;99.90;;;;;;5058696;28;20346;-63
2023/04/06 08:32:44;;;;;;;;;;;12.20;99.90;;;;;;5053714;28;20296;-65
2023/04/06 08:35:10;;;;;;;;;;;12.10;99.90;;;;;;5059115;28;19925;-63
2023/04/06 08:37:36;;;;;;;;;;;12.30;99.90;;;;;;5055703;28;20265;-64
2023/04/06 08:40:02;;;;;;;;;;;12.40;99.90;;;;;;5056575;28;19920;-64
2023/04/06 08:42:31;;;;;;;;;;;12.40;99.90;;;;;;5059879;28;19913;-63
2023/04/06 08:44:56;;;;;;;;;;;12.40;99.90;;;;;;5043134;28;19967;-64
2023/04/06 08:47:22;;;;;;;;;;;12.40;99.90;;;;;;5050767;28;19913;-64
2023/04/06 08:49:48;;;;;;;;;;;12.40;99.90;;;;;;5048203;28;19932;-64
2023/04/06 08:52:14;;;;;;;;;;;12.20;99.90;;;;;;5036909;28;19963;-64
2023/04/06 08:54:40;;;;;;;;;;;12.20;99.90;;;;;;5059579;28;19920;-64
2023/04/06 08:57:06;;;;;;;;;;;12.50;99.90;;;;;;5050468;28;20509;-66
2023/04/06 08:59:32;;;;;;;;;;;12.50;99.90;;;;;;5055870;28;20387;-65
2023/04/06 09:01:59;;;;;;;;;;;12.60;99.90;;;;;;5058888;28;19916;-63
2023/04/06 09:04:24;;;;;;;;;;;12.80;99.90;;;;;;5053326;28;20360;-64
2023/04/06 09:06:50;;;;;;;;;;;13.00;99.90;;;;;;5058073;28;19919;-64
2023/04/06 09:09:16;;;;;;;;;;;13.20;99.90;;;;;;5057107;28;19913;-64
2023/04/06 09:11:45;;;;;;;;;;;13.30;99.90;;;;;;5056148;28;20448;-63
2023/04/06 09:14:11;;;;;;;;;;;13.20;99.90;;;;;;5058909;28;19917;-64
2023/04/06 09:16:41;;;;;;;;;;;13.30;99.90;;;;;;5057772;28;20506;-64
2023/04/06 09:19:07;;;;;;;;;;;13.20;99.90;;;;;;5056678;28;20018;-64
2023/04/06 09:21:33;;;;;;;;;;;13.10;99.90;;;;;;5055083;28;19995;-64
2023/04/06 09:24:01;;;;;;;;;;;13.00;99.90;;;;;;5060647;28;20287;-63
2023/04/06 09:26:27;;;;;;;;;;;13.10;99.90;;;;;;5065980;28;19970;-63
2023/04/06 09:28:53;;;;;;;;;;;13.10;99.90;;;;;;5056150;28;19947;-65
2023/04/06 09:31:22;;;;;;;;;;;13.00;99.90;;;;;;5054581;28;19916;-65
2023/04/06 09:33:48;;;;;;;;;;;13.00;99.90;;;;;;5055625;28;19921;-65
2023/04/06 09:36:15;;;;;;;;;;;13.10;99.90;;;;;;5056983;28;19998;-65
2023/04/06 09:39:10;;;;;;;;;;;13.40;99.90;;;;;;5054725;28;19928;-64
2023/04/06 09:41:36;;;;;;;;;;;13.60;99.90;;;;;;5040513;28;19919;-64
2023/04/06 09:44:09;;;;;;;;;;;13.70;99.90;;;;;;5036442;28;20233;-66
2023/04/06 09:46:38;;;;;;;;;;;13.60;99.90;;;;;;5051652;28;19913;-63
2023/04/06 09:49:05;;;;;;;;;;;13.70;99.90;;;;;;5060148;28;19912;-64
2023/04/06 09:51:34;;;;;;;;;;;13.60;99.90;;;;;;5064525;28;19912;-66
2023/04/06 09:54:04;;;;;;;;;;;13.20;99.90;;;;;;5059773;28;19923;-65
2023/04/06 09:56:51;;;;;;;;;;;13.20;99.90;;;;;;5058471;28;19936;-65
2023/04/06 09:59:31;;;;;;;;;;;13.20;99.90;;;;;;5057646;28;19921;-65
2023/04/06 10:01:58;;;;;;;;;;;13.50;99.90;;;;;;5044533;28;19912;-66
2023/04/06 10:04:24;;;;;;;;;;;13.40;99.90;;;;;;5054047;28;20375;-66
2023/04/06 10:06:52;;;;;;;;;;;13.80;99.90;;;;;;5050913;28;19952;-65
2023/04/06 10:09:18;;;;;;;;;;;13.60;99.90;;;;;;5053068;28;19912;-67
2023/04/06 10:11:45;;;;;;;;;;;13.20;99.90;;;;;;5050211;28;20011;-68
2023/04/06 10:14:11;;;;;;;;;;;13.10;99.90;;;;;;5046348;28;19913;-68
2023/04/06 10:16:37;;;;;;;;;;;12.90;99.90;;;;;;5055652;28;19913;-67
2023/04/06 10:19:10;;;;;;;;;;;12.70;99.90;;;;;;5057765;28;19917;-67
2023/04/06 10:21:36;;;;;;;;;;;12.70;99.90;;;;;;5054829;28;20029;-67
2023/04/06 10:24:02;;;;;;;;;;;12.70;99.90;;;;;;5054328;28;19932;-67
2023/04/06 10:26:28;;;;;;;;;;;12.70;99.90;;;;;;5059132;28;19913;-68
2023/04/06 10:28:55;;;;;;;;;;;12.60;99.90;;;;;;5052467;28;19957;-66
2023/04/06 10:31:25;;;;;;;;;;;12.70;99.90;;;;;;5052959;28;20415;-68
2023/04/06 10:33:55;;;;;;;;;;;12.70;99.90;;;;;;5055740;28;19916;-68
2023/04/06 10:36:26;;;;;;;;;;;13.00;99.90;;;;;;5058673;28;20011;-68
2023/04/06 10:38:59;;;;;;;;;;;13.10;99.90;;;;;;5054227;28;19924;-67
2023/04/06 10:41:31;;;;;;;;;;;13.10;99.90;;;;;;5057798;28;20026;-67
2023/04/06 10:43:57;;;;;;;;;;;12.90;99.90;;;;;;5040626;28;19962;-67
2023/04/06 10:46:26;;;;;;;;;;;12.80;99.90;;;;;;5055727;28;19951;-68
2023/04/06 10:48:52;;;;;;;;;;;13.30;99.90;;;;;;5055915;28;19931;-69
2023/04/06 10:51:20;;;;;;;;;;;13.50;99.90;;;;;;5062868;28;20342;-69
2023/04/06 10:53:47;;;;;;;;;;;13.70;99.90;;;;;;5057881;28;19913;-68
2023/04/06 10:56:13;;;;;;;;;;;14.10;99.90;;;;;;5055238;28;19962;-68
2023/04/06 10:58:49;;;;;;;;;;;14.30;99.90;;;;;;5053421;28;19966;-68
2023/04/06 11:01:18;;;;;;;;;;;14.50;99.90;;;;;;5056378;28;20016;-68
2023/04/06 11:03:47;;;;;;;;;;;14.50;99.90;;;;;;5051718;28;19964;-68
2023/04/06 11:06:23;;;;;;;;;;;14.60;99.90;;;;;;5049820;28;19913;-69
2023/04/06 11:08:49;;;;;;;;;;;14.70;99.90;;;;;;5057323;28;19935;-69
2023/04/06 11:11:18;;;;;;;;;;;14.80;99.90;;;;;;5055675;28;20015;-69
2023/04/06 11:13:54;;;;;;;;;;;15.00;99.90;;;;;;5064070;28;20432;-70
2023/04/06 11:16:27;;;;;;;;;;;15.10;99.90;;;;;;5049377;28;20304;-68
2023/04/06 11:18:56;;;;;;;;;;;15.40;99.90;;;;;;5039910;28;19917;-69
2023/04/06 11:21:43;;;;;;;;;;;15.40;99.90;;;;;;5046898;28;20024;-68
2023/04/06 11:24:09;;;;;;;;;;;15.50;99.90;;;;;;5052653;28;20377;-68
2023/04/06 11:26:54;;;;;;;;;;;15.30;99.90;;;;;;5063030;28;19936;-68
2023/04/06 11:29:24;;;;;;;;;;;15.20;99.90;;;;;;5050998;28;19925;-69
2023/04/06 11:32:08;;;;;;;;;;;15.00;99.90;;;;;;5058976;28;20008;-68
2023/04/06 11:34:36;;;;;;;;;;;15.20;99.90;;;;;;5062951;28;19940;-69
2023/04/06 11:37:05;;;;;;;;;;;15.10;99.90;;;;;;5056916;28;19955;-69
2023/04/06 11:39:32;;;;;;;;;;;15.20;99.90;;;;;;5049839;28;20023;-69
2023/04/06 11:41:58;;;;;;;;;;;15.30;99.90;;;;;;5057751;28;19913;-68
2023/04/06 11:44:33;;;;;;;;;;;15.80;99.90;;;;;;5050533;28;19921;-69
2023/04/06 11:46:59;;;;;;;;;;;16.30;99.90;;;;;;5050616;28;20495;-68
2023/04/06 11:49:28;;;;;;;;;;;16.20;99.90;;;;;;5051232;28;20004;-69
2023/04/06 11:51:54;;;;;;;;;;;15.90;99.90;;;;;;5054156;28;19913;-69
2023/04/06 11:54:33;;;;;;;;;;;15.80;99.90;;;;;;5052394;28;19917;-68
2023/04/06 11:57:00;;;;;;;;;;;16.20;99.90;;;;;;5055508;28;19920;-69
2023/04/06 11:59:27;;;;;;;;;;;16.40;99.90;;;;;;5053216;28;20503;-69
2023/04/06 12:01:53;;;;;;;;;;;16.10;99.90;;;;;;5055413;28;20093;-68
2023/04/06 12:04:19;;;;;;;;;;;16.00;99.90;;;;;;5053853;28;19923;-69
2023/04/06 12:06:45;;;;;;;;;;;16.20;99.90;;;;;;5062008;28;19919;-69
2023/04/06 12:09:10;;;;;;;;;;;16.40;99.90;;;;;;5050013;28;19914;-70
2023/04/06 12:11:36;;;;;;;;;;;17.00;99.90;;;;;;5061411;28;20376;-69
2023/04/06 12:14:04;;;;;;;;;;;17.50;99.90;;;;;;5051663;28;19913;-69
2023/04/06 12:16:30;;;;;;;;;;;17.50;99.90;;;;;;5056935;28;19986;-69
2023/04/06 12:18:56;;;;;;;;;;;18.00;99.90;;;;;;5063670;28;20001;-68
2023/04/06 12:21:21;;;;;;;;;;;18.70;99.90;;;;;;5059183;28;20360;-68
2023/04/06 12:23:47;;;;;;;;;;;18.30;99.90;;;;;;5057793;28;20027;-67
2023/04/06 12:26:13;;;;;;;;;;;18.40;99.90;;;;;;5061355;28;19916;-68
2023/04/06 12:28:38;;;;;;;;;;;19.00;99.90;;;;;;5067844;28;19916;-69
2023/04/06 12:31:04;;;;;;;;;;;18.40;99.90;;;;;;5052487;28;19936;-68
2023/04/06 12:33:29;;;;;;;;;;;18.20;99.90;;;;;;5053658;28;19968;-69
2023/04/06 12:35:55;;;;;;;;;;;18.40;99.90;;;;;;5052665;28;19948;-68
2023/04/06 12:38:21;;;;;;;;;;;18.20;99.90;;;;;;5057505;28;19917;-68
2023/04/06 12:40:46;;;;;;;;;;;17.60;99.90;;;;;;5057255;28;19921;-68
2023/04/06 12:43:13;;;;;;;;;;;17.00;99.90;;;;;;5049497;28;20324;-68
2023/04/06 12:45:39;;;;;;;;;;;16.50;99.90;;;;;;5058366;28;19916;-69
2023/04/06 12:48:04;;;;;;;;;;;16.10;99.90;;;;;;5066805;28;20387;-69
2023/04/06 12:50:30;;;;;;;;;;;16.10;99.90;;;;;;5059343;28;19920;-69
2023/04/06 12:52:56;;;;;;;;;;;16.00;99.90;;;;;;5059002;28;19913;-70
2023/04/06 12:55:22;;;;;;;;;;;16.10;99.90;;;;;;5050377;28;19913;-61
2023/04/06 12:57:50;;;;;;;;;;;15.80;99.90;;;;;;5053234;28;19913;-61
2023/04/06 13:00:16;;;;;;;;;;;15.70;99.90;;;;;;5036352;28;19990;-62
2023/04/06 13:02:46;;;;;;;;;;;15.70;99.90;;;;;;5052090;28;19912;-62
2023/04/06 13:05:13;;;;;;;;;;;16.10;99.90;;;;;;5037864;28;19913;-61
2023/04/06 13:07:38;;;;;;;;;;;16.40;99.90;;;;;;5047767;28;19913;-63
2023/04/06 13:10:04;;;;;;;;;;;17.00;99.90;;;;;;5058862;28;20344;-62
2023/04/06 13:12:30;;;;;;;;;;;18.50;99.90;;;;;;5060390;28;19962;-61
2023/04/06 13:14:56;;;;;;;;;;;18.80;99.90;;;;;;5059572;28;19913;-61
2023/04/06 13:17:22;;;;;;;;;;;20.00;99.90;;;;;;5041243;28;19941;-62
2023/04/06 13:19:47;;;;;;;;;;;20.30;99.90;;;;;;5053805;28;20080;-61
2023/04/06 13:22:13;;;;;;;;;;;19.60;99.90;;;;;;5053939;28;20317;-62
2023/04/06 13:24:39;;;;;;;;;;;18.90;99.90;;;;;;5057035;28;19919;-62
2023/04/06 13:27:05;;;;;;;;;;;17.70;99.90;;;;;;5047053;28;19913;-61
2023/04/06 13:29:30;;;;;;;;;;;17.30;99.90;;;;;;5055560;28;19916;-63
2023/04/06 13:31:56;;;;;;;;;;;17.30;99.90;;;;;;5052012;28;19919;-62
2023/04/06 13:34:21;;;;;;;;;;;17.10;99.90;;;;;;5044579;28;19912;-62
2023/04/06 13:36:47;;;;;;;;;;;16.70;99.90;;;;;;5051324;28;19917;-62
2023/04/06 13:39:13;;;;;;;;;;;16.40;99.90;;;;;;5039962;28;19917;-62
2023/04/06 13:41:39;;;;;;;;;;;15.60;99.90;;;;;;5050343;28;19912;-62
2023/04/06 13:44:05;;;;;;;;;;;15.40;99.90;;;;;;5048928;28;19925;-62
2023/04/06 13:46:32;;;;;;;;;;;15.40;99.90;;;;;;5050028;28;19913;-62
2023/04/06 13:48:57;;;;;;;;;;;15.50;99.90;;;;;;5050576;28;19912;-62
2023/04/06 13:51:23;;;;;;;;;;;15.70;99.90;;;;;;5051246;28;20379;-61
2023/04/06 13:53:52;;;;;;;;;;;16.00;99.90;;;;;;5064551;28;19920;-61
2023/04/06 13:56:17;;;;;;;;;;;15.50;99.90;;;;;;5047395;28;19913;-61
2023/04/06 13:58:43;;;;;;;;;;;15.10;99.90;;;;;;5053466;28;20021;-61
2023/04/06 14:01:09;;;;;;;;;;;15.40;99.90;;;;;;5057013;28;20854;-61
2023/04/06 14:03:35;;;;;;;;;;;15.80;99.90;;;;;;5054083;28;19912;-61
2023/04/06 14:06:01;;;;;;;;;;;15.40;99.90;;;;;;5049486;28;19917;-62
2023/04/06 14:08:26;;;;;;;;;;;15.80;99.90;;;;;;5054178;28;19920;-61
2023/04/06 14:10:53;;;;;;;;;;;16.30;99.90;;;;;;5049366;28;19944;-62
2023/04/06 14:13:19;;;;;;;;;;;17.50;99.90;;;;;;5056401;28;19995;-62